createdAt,value
2023-03-10T00:00:34.347Z,9.73
2023-03-10T00:05:59.537Z,14.23
2023-03-10T00:11:08.062Z,10.80
2023-03-10T00:16:19.112Z,7.22
2023-03-10T00:21:26.162Z,8.27
2023-03-10T00:26:34.113Z,2.15
2023-03-10T00:31:39.491Z,1.53
2023-03-10T00:36:46.522Z,1.38
2023-03-10T00:41:54.591Z,2.10
2023-03-10T00:47:01.256Z,1.63
2023-03-10T00:52:07.595Z,3.17
2023-03-10T00:57:15.506Z,2.60
2023-03-10T01:02:20.895Z,2.08
2023-03-10T01:07:26.126Z,4.10
2023-03-10T01:12:33.985Z,1.27
2023-03-10T01:17:39.354Z,1.63
2023-03-10T01:22:44.816Z,2.53
2023-03-10T01:27:52.879Z,0.75
2023-03-10T01:32:58.088Z,1.27
2023-03-10T01:38:03.479Z,1.23
2023-03-10T01:43:31.731Z,4.03
2023-03-10T01:48:39.464Z,2.03
2023-03-10T01:53:45.692Z,2.13
2023-03-10T01:58:54.068Z,1.33
2023-03-10T02:04:03.445Z,2.00
2023-03-10T02:09:09.506Z,2.55
2023-03-10T02:14:17.609Z,1.40
2023-03-10T02:19:38.435Z,2.45
2023-03-10T02:24:49.734Z,0.98
2023-03-10T02:30:04.182Z,0.97
2023-03-10T02:35:13.332Z,1.50
2023-03-10T02:40:34.067Z,3.00
2023-03-10T02:45:49.614Z,3.70
2023-03-10T02:50:55.912Z,2.88
2023-03-10T02:56:02.555Z,2.40
2023-03-10T03:01:14.125Z,0.93
2023-03-10T03:06:20.544Z,3.93
2023-03-10T03:11:26.087Z,2.60
2023-03-10T03:16:34.982Z,2.05
2023-03-10T03:21:50.231Z,1.90
2023-03-10T03:26:56.280Z,2.70
2023-03-10T03:32:08.960Z,4.67
2023-03-10T03:37:14.573Z,3.65
2023-03-10T03:42:20.106Z,4.07
2023-03-10T03:47:33.327Z,2.87
2023-03-10T03:52:40.528Z,2.60
2023-03-10T03:57:47.928Z,4.47
2023-03-10T04:02:56.452Z,3.53
2023-03-10T04:08:02.476Z,3.33
2023-03-10T04:13:09.107Z,3.10
2023-03-10T04:18:18.449Z,3.78
2023-03-10T04:23:23.982Z,4.40
2023-03-10T04:28:29.823Z,2.97
2023-03-10T04:33:38.369Z,2.72
2023-03-10T04:38:45.503Z,3.97
2023-03-10T04:43:51.592Z,3.60
2023-03-10T04:49:00.520Z,3.83
2023-03-10T04:54:06.181Z,5.68
2023-03-10T04:59:11.603Z,5.03
2023-03-10T05:04:19.622Z,2.80
2023-03-10T05:09:25.024Z,3.25
2023-03-10T05:14:30.612Z,6.63
2023-03-10T05:19:39.457Z,5.43
2023-03-10T05:24:45.871Z,4.28
2023-03-10T05:29:51.664Z,5.27
2023-03-10T05:35:03.237Z,5.47
2023-03-10T05:40:13.423Z,3.23
2023-03-10T05:45:19.798Z,6.93
2023-03-10T05:50:28.956Z,5.43
2023-03-10T05:55:35.699Z,7.43
2023-03-10T06:00:41.162Z,4.05
2023-03-10T06:05:49.294Z,4.50
2023-03-10T06:10:54.847Z,3.53
2023-03-10T06:16:02.059Z,4.93
2023-03-10T06:21:12.101Z,5.50
2023-03-10T06:26:20.351Z,5.72
2023-03-10T06:31:27.591Z,4.53
2023-03-10T06:36:37.422Z,7.25
2023-03-10T06:41:42.690Z,3.28
2023-03-10T06:46:48.142Z,4.67
2023-03-10T06:51:56.008Z,7.63
2023-03-10T06:57:01.592Z,8.03
2023-03-10T07:02:06.998Z,4.22
2023-03-10T07:07:15.259Z,4.57
2023-03-10T07:12:20.591Z,8.07
2023-03-10T07:17:25.923Z,5.97
2023-03-10T07:22:33.839Z,6.83
2023-03-10T07:27:39.142Z,5.20
2023-03-10T07:32:44.400Z,4.93
2023-03-10T07:37:52.373Z,5.83
2023-03-10T07:42:59.841Z,7.05
2023-03-10T07:48:06.933Z,5.73
2023-03-10T07:53:14.863Z,5.30
2023-03-10T07:58:20.253Z,3.97
2023-03-10T08:03:25.724Z,11.23
2023-03-10T08:08:34.098Z,10.38
2023-03-10T08:13:40.311Z,6.00
2023-03-10T08:18:46.897Z,7.80
2023-03-10T08:23:54.794Z,5.53
2023-03-10T08:29:00.132Z,7.83
2023-03-10T08:34:05.648Z,7.45
2023-03-10T08:39:15.000Z,7.83
2023-03-10T08:44:21.020Z,6.68
2023-03-10T08:49:26.407Z,11.20
2023-03-10T08:54:34.269Z,4.63
2023-03-10T08:59:39.667Z,8.73
2023-03-10T09:04:44.983Z,5.07
2023-03-10T09:09:52.889Z,7.43
2023-03-10T09:14:58.254Z,4.35
2023-03-10T09:20:06.445Z,6.57
2023-03-10T09:25:14.977Z,5.97
2023-03-10T09:30:23.185Z,5.75
2023-03-10T09:35:28.489Z,3.53
2023-03-10T09:40:37.017Z,6.68
2023-03-10T09:45:50.156Z,7.13
2023-03-10T09:50:59.304Z,9.77
2023-03-10T09:56:14.737Z,5.88
2023-03-10T10:01:22.219Z,5.40
2023-03-10T10:06:30.462Z,8.50
2023-03-10T10:11:39.453Z,5.63
2023-03-10T10:16:51.799Z,6.27
2023-03-10T10:22:05.221Z,4.75
2023-03-10T10:27:18.329Z,4.65
2023-03-10T10:32:26.005Z,5.00
2023-03-10T10:37:38.777Z,3.72
2023-03-10T10:42:55.672Z,5.63
2023-03-10T10:48:01.549Z,7.10
2023-03-10T10:53:24.416Z,7.47
2023-03-10T10:58:35.063Z,5.50
2023-03-10T11:03:41.892Z,8.15
2023-03-10T11:08:50.963Z,5.18
2023-03-10T11:14:23.931Z,4.30
2023-03-10T11:19:37.178Z,5.18
2023-03-10T11:24:48.662Z,3.13
2023-03-10T11:30:08.879Z,2.88
2023-03-10T11:35:24.313Z,3.28
2023-03-10T11:40:34.638Z,3.43
2023-03-10T11:45:52.741Z,3.75
2023-03-10T11:51:01.129Z,2.67
2023-03-10T11:56:10.116Z,3.08
2023-03-10T12:01:21.157Z,5.38
2023-03-10T12:06:35.722Z,5.57
2023-03-10T12:11:41.024Z,5.85
2023-03-10T12:16:50.478Z,4.70
2023-03-10T12:22:25.594Z,4.18
2023-03-10T12:27:30.901Z,3.30
2023-03-10T12:32:48.180Z,4.27
2023-03-10T12:38:13.487Z,3.13
2023-03-10T12:43:54.035Z,4.97
2023-03-10T12:49:17.381Z,3.53
2023-03-10T12:54:44.356Z,3.08
2023-03-10T12:59:59.433Z,3.17
2023-03-10T13:05:20.898Z,3.97
2023-03-10T13:10:28.664Z,1.30
2023-03-10T13:15:35.665Z,2.13
2023-03-10T13:20:43.651Z,2.22
2023-03-10T13:25:54.955Z,1.87
2023-03-10T13:31:20.122Z,1.27
2023-03-10T13:36:33.388Z,2.33
2023-03-10T13:41:43.648Z,2.92
2023-03-10T13:46:51.923Z,2.00
2023-03-10T13:52:02.042Z,2.60
2023-03-10T13:57:16.957Z,3.67
2023-03-10T14:02:26.209Z,3.00
2023-03-10T14:07:36.941Z,1.48
2023-03-10T14:12:44.448Z,0.73
2023-03-10T14:17:51.498Z,2.70
2023-03-10T14:22:59.822Z,1.17
2023-03-10T14:33:20.772Z,1.13
2023-03-10T14:38:28.777Z,1.08
2023-03-10T14:43:35.651Z,2.13
2023-03-10T14:48:43.036Z,1.50
2023-03-10T14:53:51.200Z,2.33
2023-03-10T14:59:02.419Z,2.15
2023-03-10T15:04:08.267Z,1.95
2023-03-10T15:09:16.890Z,2.03
2023-03-10T15:14:22.514Z,1.90
2023-03-10T15:19:30.832Z,2.90
2023-03-10T15:24:38.871Z,1.48
2023-03-10T15:29:44.272Z,1.45
2023-03-10T15:34:49.581Z,1.20
2023-03-10T15:39:57.438Z,2.05
2023-03-10T15:45:04.822Z,1.17
2023-03-10T15:50:12.087Z,1.73
2023-03-10T15:55:20.562Z,2.58
2023-03-10T16:00:27.486Z,1.27
2023-03-10T16:05:32.924Z,1.15
2023-03-10T16:10:41.034Z,2.20
2023-03-10T16:15:47.012Z,1.50
2023-03-10T16:20:58.779Z,0.30
2023-03-10T16:26:12.686Z,0.47
2023-03-10T16:31:19.845Z,0.40
2023-03-10T16:36:26.902Z,0.90
2023-03-10T16:41:35.007Z,0.88
2023-03-10T16:46:41.532Z,0.90
2023-03-10T16:51:48.271Z,1.10
2023-03-10T16:57:01.537Z,1.15
2023-03-10T17:02:07.931Z,2.93
2023-03-10T17:07:14.206Z,2.85
2023-03-10T17:12:22.200Z,1.80
2023-03-10T17:17:27.807Z,2.40
2023-03-10T17:22:33.547Z,4.72
2023-03-10T17:27:42.516Z,2.67
2023-03-10T17:32:51.288Z,2.95
2023-03-10T17:37:56.604Z,2.53
2023-03-10T17:43:17.589Z,2.03
2023-03-10T17:48:30.842Z,2.80
2023-03-10T17:53:36.344Z,3.47
2023-03-10T17:58:44.363Z,3.35
2023-03-10T18:03:49.809Z,4.28
2023-03-10T18:08:56.829Z,2.83
2023-03-10T18:14:04.935Z,4.47
2023-03-10T18:19:11.355Z,4.53
2023-03-10T18:24:17.036Z,3.78
2023-03-10T18:29:25.213Z,3.92
2023-03-10T18:34:30.502Z,4.93
2023-03-10T18:39:35.773Z,3.25
2023-03-10T18:44:47.656Z,3.37
2023-03-10T18:49:53.141Z,4.05
2023-03-10T18:55:00.827Z,2.17
2023-03-10T19:00:14.554Z,3.87
2023-03-10T19:05:20.073Z,4.03
2023-03-10T19:10:25.568Z,6.30
2023-03-10T19:15:33.676Z,3.90
2023-03-10T19:20:38.994Z,5.25
2023-03-10T19:25:44.322Z,7.53
2023-03-10T19:30:54.319Z,4.70
2023-03-10T19:36:03.826Z,3.03
2023-03-10T19:41:14.788Z,3.22
2023-03-10T19:46:23.090Z,2.58
2023-03-10T19:51:31.254Z,2.60
2023-03-10T19:56:36.619Z,2.85
2023-03-10T20:01:48.855Z,3.37
2023-03-10T20:06:54.330Z,4.10
2023-03-10T20:11:59.922Z,2.70
2023-03-10T20:17:09.210Z,1.93
2023-03-10T20:22:18.557Z,2.60
2023-03-10T20:27:25.457Z,3.00
2023-03-10T20:32:33.477Z,2.38
2023-03-10T20:37:38.853Z,3.22
2023-03-10T20:42:44.592Z,2.73
2023-03-10T20:47:53.345Z,2.88
2023-03-10T20:52:58.925Z,7.63
2023-03-10T20:58:04.638Z,3.42
2023-03-10T21:03:12.551Z,3.72
2023-03-10T21:08:19.639Z,3.83
2023-03-10T21:13:25.204Z,3.83
2023-03-10T21:18:33.098Z,7.15
2023-03-10T21:23:45.215Z,4.00
2023-03-10T21:28:52.087Z,4.18
2023-03-10T21:34:00.867Z,4.67
2023-03-10T21:39:09.097Z,9.95
2023-03-10T21:44:17.209Z,6.72
2023-03-10T21:49:25.287Z,4.15
2023-03-10T21:54:30.684Z,5.32
2023-03-10T21:59:36.030Z,3.93
2023-03-10T22:04:44.378Z,2.25
2023-03-10T22:09:56.186Z,7.53
2023-03-10T22:15:03.133Z,4.95
2023-03-10T22:20:26.454Z,5.97
2023-03-10T22:25:31.875Z,7.23
2023-03-10T22:30:43.914Z,7.57
2023-03-10T22:35:54.187Z,4.10
2023-03-10T22:41:05.325Z,6.13
2023-03-10T22:46:16.494Z,4.22
2023-03-10T22:51:25.145Z,2.97
2023-03-10T22:56:30.439Z,8.63
2023-03-10T23:01:35.841Z,3.58
2023-03-10T23:06:43.861Z,4.43
2023-03-10T23:11:49.290Z,6.38
2023-03-10T23:16:54.621Z,3.47
2023-03-10T23:22:02.636Z,5.35
2023-03-10T23:27:08.126Z,4.50
2023-03-10T23:32:13.681Z,3.47
2023-03-10T23:37:21.756Z,6.85
2023-03-10T23:42:27.293Z,4.60
2023-03-10T23:47:32.622Z,4.00
2023-03-10T23:52:40.821Z,6.20
2023-03-10T23:57:46.370Z,2.78
